Time;durP1;ratioP1;P1;durP2;ratioP2;P2;SDS_P1;SDS_P2;PMS_P1;PMS_P2;Temp;Humidity;BMP_temperature;BMP_pressure;BME280_temperature;BME280_humidity;BME280_pressure;Samples;Min_cycle;Max_cycle;Signal;HPM_P1;HPM_P2
2021/12/01 00:00:07;;;;;;;12.63;11.43;;;;;;;23.02;28.05;94655.44;4904421;28;102922;-69
2021/12/01 00:02:32;;;;;;;10.83;9.90;;;;;;;23.01;27.84;94659.97;4899424;28;103358;-68
2021/12/01 00:04:58;;;;;;;9.97;9.07;;;;;;;22.96;28.01;94662.00;4903729;28;102752;-68
2021/12/01 00:07:23;;;;;;;9.97;8.97;;;;;;;23.01;27.90;94675.97;4903958;28;103088;-68
2021/12/01 00:09:48;;;;;;;9.77;8.97;;;;;;;22.99;28.10;94666.69;4901839;28;103173;-69
2021/12/01 00:12:14;;;;;;;9.97;9.07;;;;;;;23.00;27.97;94669.03;4904302;28;102697;-68
2021/12/01 00:14:39;;;;;;;10.10;9.20;;;;;;;22.98;27.88;94665.13;4898791;28;102747;-69
2021/12/01 00:17:10;;;;;;;9.70;8.80;;;;;;;22.96;27.67;94657.47;4902419;28;103617;-68
2021/12/01 00:19:36;;;;;;;9.27;8.47;;;;;;;22.96;27.83;94667.34;4903002;28;103083;-68
2021/12/01 00:22:02;;;;;;;11.00;10.17;;;;;;;22.96;27.66;94668.13;4903891;28;102976;-68
2021/12/01 00:24:27;;;;;;;8.60;7.90;;;;;;;22.96;27.57;94654.78;4897966;28;104330;-68
2021/12/01 00:26:53;;;;;;;9.40;8.50;;;;;;;22.91;27.83;94624.88;4900426;28;105325;-69
2021/12/01 00:29:18;;;;;;;9.20;8.40;;;;;;;22.96;27.62;94646.03;4904518;28;102691;-69
2021/12/01 00:31:44;;;;;;;8.57;7.87;;;;;;;22.96;27.92;94633.47;4903409;28;102700;-68
2021/12/01 00:34:09;;;;;;;8.50;7.80;;;;;;;22.90;27.71;94631.31;4903515;28;103178;-69
2021/12/01 00:36:35;;;;;;;10.20;9.40;;;;;;;22.98;26.99;94633.94;4898487;28;102836;-69
2021/12/01 00:39:00;;;;;;;9.17;8.37;;;;;;;22.98;27.42;94635.81;4902046;28;102884;-68
2021/12/01 00:41:26;;;;;;;9.00;8.20;;;;;;;22.93;27.15;94631.44;4903914;28;103608;-68
2021/12/01 00:43:52;;;;;;;8.47;7.77;;;;;;;22.98;27.21;94633.94;4903141;28;103362;-68
2021/12/01 00:48:46;;;;;;;9.07;8.30;;;;;;;22.98;27.63;94630.50;4903660;28;103465;-68
2021/12/01 00:51:12;;;;;;;8.27;7.57;;;;;;;22.98;27.27;94633.94;4900839;28;104277;-68
2021/12/01 00:53:38;;;;;;;8.40;7.70;;;;;;;22.98;26.92;94633.16;4902451;28;103876;-68
2021/12/01 00:56:05;;;;;;;7.70;7.10;;;;;;;22.99;27.03;94622.19;4902536;28;103197;-68
2021/12/01 00:58:31;;;;;;;8.00;7.30;;;;;;;22.92;27.24;94611.25;4898188;28;102833;-69
2021/12/01 01:00:58;;;;;;;8.13;7.43;;;;;;;22.95;27.05;94620.47;4917240;28;104122;-70
2021/12/01 01:03:24;;;;;;;9.07;8.20;;;;;;;22.98;27.31;94620.63;4903511;28;102760;-68
2021/12/01 01:05:49;;;;;;;7.90;7.10;;;;;;;22.95;26.93;94618.59;4903228;28;102631;-68
2021/12/01 01:08:16;;;;;;;8.00;7.20;;;;;;;22.93;27.25;94615.47;4895731;28;102735;-67
2021/12/01 01:18:45;;;;;;;7.80;7.20;;;;;;;22.91;27.03;94619.53;4895199;28;103335;-70
2021/12/01 01:21:12;;;;;;;7.67;7.07;;;;;;;22.94;27.35;94632.22;4898586;28;103514;-68
2021/12/01 01:23:38;;;;;;;7.80;7.10;;;;;;;22.90;27.30;94632.09;4896735;28;105592;-69
2021/12/01 01:26:07;;;;;;;7.77;7.10;;;;;;;22.94;27.37;94638.34;4896890;28;102753;-69
2021/12/01 01:28:33;;;;;;;7.43;6.83;;;;;;;22.91;27.60;94625.66;4903077;28;103347;-69
2021/12/01 01:30:59;;;;;;;6.50;6.00;;;;;;;22.95;27.26;94628.47;4897038;28;102918;-68
2021/12/01 01:33:25;;;;;;;7.60;7.00;;;;;;;22.92;27.12;94639.75;4902591;28;102668;-68
2021/12/01 01:35:52;;;;;;;7.90;7.20;;;;;;;22.92;27.19;94645.09;4901966;28;102856;-68
2021/12/01 01:38:18;;;;;;;7.53;6.93;;;;;;;22.95;27.17;94665.75;4901904;28;102852;-68
2021/12/01 01:40:44;;;;;;;7.50;6.90;;;;;;;22.94;27.08;94653.53;4902463;28;102892;-69
2021/12/01 01:43:11;;;;;;;7.40;6.80;;;;;;;22.95;27.09;94663.09;4897727;28;102833;-68
2021/12/01 01:45:36;;;;;;;7.43;6.73;;;;;;;22.85;27.66;94644.78;4902443;28;103231;-68
2021/12/01 01:48:04;;;;;;;7.10;6.53;;;;;;;22.93;27.47;94650.09;4902743;28;102785;-68
2021/12/01 01:50:37;;;;;;;7.27;6.77;;;;;;;22.91;27.53;94657.63;4901937;28;102765;-68
2021/12/01 01:53:10;;;;;;;7.77;7.10;;;;;;;22.86;27.35;94641.81;4893000;28;103506;-68
2021/12/01 01:55:39;;;;;;;7.17;6.57;;;;;;;22.86;27.20;94628.50;4897296;28;102788;-68
2021/12/01 01:58:05;;;;;;;6.73;6.23;;;;;;;22.88;27.40;94618.28;4902082;28;102811;-69
2021/12/01 02:00:34;;;;;;;7.47;6.87;;;;;;;22.86;26.76;94639.13;4901050;28;103286;-68
2021/12/01 02:03:00;;;;;;;7.37;6.50;;;;;;;22.85;27.62;94624.25;4912733;28;105781;-69
2021/12/01 02:05:26;;;;;;;7.40;6.70;;;;;;;22.88;27.22;94639.59;4895857;28;103987;-68
2021/12/01 02:07:53;;;;;;;6.60;6.10;;;;;;;22.88;27.21;94638.81;4897068;28;102849;-68
2021/12/01 02:10:19;;;;;;;7.03;6.53;;;;;;;22.81;27.01;94623.28;4901976;28;103780;-68
2021/12/01 02:12:46;;;;;;;6.17;5.67;;;;;;;22.84;26.94;94614.66;4902395;28;102897;-68
2021/12/01 02:15:12;;;;;;;6.50;6.00;;;;;;;22.90;26.92;94624.09;4896231;28;103347;-69
2021/12/01 02:17:37;;;;;;;5.87;5.40;;;;;;;22.87;27.18;94611.41;4902503;28;102755;-68
2021/12/01 02:20:21;;;;;;;6.90;6.30;;;;;;;22.84;27.13;94596.03;4901966;28;103240;-69
2021/12/01 02:22:48;;;;;;;5.57;5.17;;;;;;;22.88;27.28;94594.31;4901293;28;102907;-68
2021/12/01 02:25:14;;;;;;;5.80;5.30;;;;;;;22.86;27.23;94599.19;4896975;28;103206;-68
2021/12/01 02:27:39;;;;;;;6.30;5.80;;;;;;;22.87;26.65;94603.41;4896822;28;102801;-69
2021/12/01 02:30:06;;;;;;;5.83;5.33;;;;;;;22.88;26.88;94602.31;4882975;28;102925;-69
2021/12/01 02:32:31;;;;;;;6.00;5.50;;;;;;;22.86;26.64;94598.41;4883204;28;102808;-68
2021/12/01 02:34:57;;;;;;;5.40;5.00;;;;;;;22.88;26.62;94618.28;4883347;28;102942;-68
2021/12/01 02:37:22;;;;;;;5.50;5.10;;;;;;;22.85;26.84;94592.28;4877717;28;102920;-68
2021/12/01 02:39:51;;;;;;;5.30;4.90;;;;;;;22.86;26.77;94595.75;4883074;28;102938;-70
2021/12/01 02:42:20;;;;;;;5.90;5.40;;;;;;;22.88;27.21;94607.66;4897738;28;104509;-70
2021/12/01 02:44:47;;;;;;;5.60;5.20;;;;;;;22.85;27.20;94597.63;4885655;28;102805;-69
2021/12/01 02:47:13;;;;;;;5.80;5.30;;;;;;;22.86;27.11;94596.53;4897231;28;102797;-69
2021/12/01 02:49:38;;;;;;;5.63;5.23;;;;;;;22.86;26.80;94593.84;4900318;28;103363;-69
2021/12/01 02:52:05;;;;;;;5.17;4.77;;;;;;;22.87;26.76;94589.31;4900667;28;102834;-68
2021/12/01 02:54:32;;;;;;;5.33;4.93;;;;;;;22.85;26.62;94586.97;4916590;28;103613;-69
2021/12/01 02:56:59;;;;;;;5.60;5.17;;;;;;;22.90;26.66;94612.66;4902267;28;102723;-67
2021/12/01 02:59:26;;;;;;;5.10;4.70;;;;;;;22.89;26.59;94627.84;4896385;28;103547;-67
2021/12/01 03:01:53;;;;;;;4.67;4.27;;;;;;;22.85;27.14;94597.63;4899493;28;104473;-68
2021/12/01 03:04:19;;;;;;;4.90;4.53;;;;;;;22.86;26.51;94623.16;4901266;28;102976;-67
2021/12/01 03:06:48;;;;;;;5.00;4.60;;;;;;;22.86;26.45;94601.84;4901850;28;103552;-67
2021/12/01 03:09:15;;;;;;;4.87;4.50;;;;;;;22.84;26.81;94606.69;4896916;28;103365;-67
2021/12/01 03:11:42;;;;;;;5.87;5.30;;;;;;;22.84;26.63;94620.00;4901185;28;102789;-67
2021/12/01 03:14:14;;;;;;;4.90;4.50;;;;;;;22.84;26.86;94603.25;4898566;28;105001;-67
2021/12/01 03:16:41;;;;;;;5.40;4.90;;;;;;;22.88;26.77;94639.59;4902260;28;102804;-68
2021/12/01 03:19:06;;;;;;;4.50;4.20;;;;;;;22.86;26.78;94627.72;4899247;28;105827;-68
2021/12/01 03:21:35;;;;;;;4.43;4.13;;;;;;;22.84;26.53;94624.53;4894785;28;102943;-68
2021/12/01 03:24:00;;;;;;;4.60;4.27;;;;;;;22.77;26.96;94607.13;4914638;28;104544;-68
2021/12/01 03:26:29;;;;;;;4.60;4.20;;;;;;;22.86;27.11;94633.81;4901272;28;103360;-67
2021/12/01 03:28:54;;;;;;;4.90;4.50;;;;;;;22.84;26.64;94628.00;4901082;28;103839;-68
2021/12/01 03:31:20;;;;;;;4.30;3.90;;;;;;;22.87;26.65;94646.03;4897133;28;103128;-67
2021/12/01 03:33:45;;;;;;;4.37;4.00;;;;;;;22.86;26.86;94649.78;4896346;28;103976;-67
2021/12/01 03:36:11;;;;;;;4.53;4.23;;;;;;;22.86;27.15;94633.03;4886002;28;102746;-67
2021/12/01 03:38:36;;;;;;;4.03;3.73;;;;;;;22.71;26.73;94615.59;4901665;28;103022;-67
2021/12/01 03:41:02;;;;;;;4.20;3.83;;;;;;;22.88;26.83;94644.94;4901849;28;104625;-68
2021/12/01 03:43:27;;;;;;;4.27;3.97;;;;;;;22.85;26.49;94636.78;4896503;28;104158;-66
2021/12/01 03:45:53;;;;;;;4.40;4.10;;;;;;;22.87;26.77;94647.91;4903399;28;102914;-69
2021/12/01 03:48:21;;;;;;;4.50;4.20;;;;;;;22.86;26.62;94643.69;4903546;28;104303;-68
2021/12/01 03:50:49;;;;;;;4.57;4.27;;;;;;;22.87;26.62;94640.72;4904214;28;103469;-68
2021/12/01 03:53:17;;;;;;;3.83;3.53;;;;;;;22.92;26.52;94653.88;4899168;28;103037;-68
2021/12/01 03:55:42;;;;;;;3.90;3.70;;;;;;;22.93;26.65;94634.13;4902682;28;103304;-67
2021/12/01 03:58:08;;;;;;;4.00;3.60;;;;;;;22.87;26.27;94606.06;4904022;28;102684;-68
2021/12/01 04:00:33;;;;;;;4.00;3.70;;;;;;;22.91;26.74;94616.88;4904366;28;103669;-68
2021/12/01 04:02:59;;;;;;;3.77;3.47;;;;;;;22.90;26.18;94626.75;4902460;28;102863;-70
2021/12/01 04:05:24;;;;;;;3.90;3.50;;;;;;;22.89;26.62;94608.44;4900868;28;102794;-71
2021/12/01 04:07:50;;;;;;;4.00;3.70;;;;;;;22.91;26.42;94628.31;4905668;28;103809;-70
2021/12/01 04:10:17;;;;;;;3.80;3.50;;;;;;;22.95;26.10;94612.47;4905850;28;102746;-71
2021/12/01 04:12:43;;;;;;;4.30;3.90;;;;;;;22.97;26.52;94610.28;4912736;28;103597;-70
2021/12/01 04:15:11;;;;;;;4.23;3.93;;;;;;;22.96;26.59;94630.81;4900974;28;102921;-70
2021/12/01 04:17:39;;;;;;;4.07;3.77;;;;;;;22.99;26.29;94619.53;4904919;28;103289;-71
2021/12/01 04:20:05;;;;;;;4.53;4.13;;;;;;;22.97;26.42;94615.63;4904099;28;103632;-71
2021/12/01 04:22:30;;;;;;;4.50;3.93;;;;;;;22.90;26.82;94613.44;4897400;28;104144;-70
2021/12/01 04:24:56;;;;;;;4.63;4.23;;;;;;;22.81;27.21;94602.75;4905718;28;104641;-71
2021/12/01 04:27:21;;;;;;;4.30;3.90;;;;;;;22.80;27.31;94611.84;4901672;28;102864;-71
2021/12/01 04:29:47;;;;;;;4.77;4.37;;;;;;;22.79;27.60;94601.50;4905718;28;102917;-69
2021/12/01 04:32:13;;;;;;;5.33;4.10;;;;;;;22.78;27.10;94603.38;4904385;28;102717;-70
2021/12/01 04:34:39;;;;;;;4.60;4.20;;;;;;;22.79;27.68;94601.50;4919498;28;102887;-70
2021/12/01 04:37:06;;;;;;;7.23;4.93;;;;;;;22.77;27.38;94593.03;4916832;28;102932;-71
2021/12/01 04:39:32;;;;;;;4.90;4.30;;;;;;;22.77;27.17;94601.03;4901491;28;104639;-70
2021/12/01 04:42:07;;;;;;;4.50;4.20;;;;;;;22.73;27.33;94600.09;4904586;28;102875;-70
2021/12/01 04:44:35;;;;;;;5.03;4.63;;;;;;;22.76;27.62;94610.13;4905607;28;102868;-72
2021/12/01 04:47:03;;;;;;;6.70;5.20;;;;;;;22.74;27.46;94629.06;4905353;28;103472;-69
2021/12/01 04:49:31;;;;;;;5.90;5.30;;;;;;;22.72;28.12;94630.50;4902526;28;103591;-70
2021/12/01 04:52:00;;;;;;;5.57;5.07;;;;;;;22.63;27.52;94621.69;4904658;28;102763;-69
2021/12/01 04:54:27;;;;;;;5.87;5.47;;;;;;;22.68;27.81;94626.91;4904103;28;103021;-68
2021/12/01 04:56:56;;;;;;;6.33;5.83;;;;;;;22.66;27.49;94639.72;4903858;28;105694;-69
2021/12/01 04:59:22;;;;;;;6.30;5.70;;;;;;;22.68;27.77;94635.66;4899712;28;102803;-68
2021/12/01 05:01:52;;;;;;;10.27;6.70;;;;;;;22.68;28.16;94653.53;4895381;28;104109;-69
2021/12/01 05:04:17;;;;;;;7.93;7.10;;;;;;;22.70;28.01;94643.34;4914321;28;102999;-69
2021/12/01 05:06:43;;;;;;;7.30;6.73;;;;;;;22.72;28.20;94646.47;4899189;28;102743;-69
2021/12/01 05:09:10;;;;;;;12.20;9.63;;;;;;;22.60;27.96;94665.72;4898880;28;102775;-69
2021/12/01 05:11:35;;;;;;;8.60;7.80;;;;;;;22.37;26.59;94659.72;4893188;28;102916;-69
2021/12/01 05:14:01;;;;;;;8.00;7.30;;;;;;;22.23;26.34;94661.72;4893986;28;103744;-68
2021/12/01 05:16:27;;;;;;;8.73;7.47;;;;;;;22.24;26.45;94667.84;4893355;28;102801;-69
2021/12/01 05:18:52;;;;;;;6.90;6.30;;;;;;;22.18;26.67;94665.31;4897250;28;102621;-68
2021/12/01 05:21:18;;;;;;;7.10;6.50;;;;;;;22.44;25.68;94652.06;4880222;28;103523;-68
2021/12/01 05:23:44;;;;;;;6.40;5.80;;;;;;;22.59;25.96;94655.38;4894562;28;102885;-70
2021/12/01 05:26:11;;;;;;;8.10;7.50;;;;;;;22.67;27.18;94659.91;4899225;28;103386;-73
2021/12/01 05:28:38;;;;;;;6.83;6.33;;;;;;;22.73;26.95;94664.00;4907090;28;102806;-71
2021/12/01 05:31:03;;;;;;;8.30;6.20;;;;;;;22.76;26.67;94666.03;4911335;28;102413;-71
2021/12/01 05:33:29;;;;;;;7.87;5.83;;;;;;;22.76;26.87;94660.72;4906892;28;102819;-71
2021/12/01 05:35:55;;;;;;;7.60;6.50;;;;;;;22.81;26.51;94663.22;4907346;28;102763;-71
2021/12/01 05:38:20;;;;;;;6.73;6.13;;;;;;;22.84;26.34;94667.94;4921948;28;104341;-72
2021/12/01 05:40:47;;;;;;;6.67;6.07;;;;;;;22.84;26.48;94664.50;4907581;28;102839;-72
2021/12/01 05:43:14;;;;;;;6.43;5.43;;;;;;;22.85;26.59;94660.78;4919358;28;102576;-72
2021/12/01 05:45:39;;;;;;;5.70;5.20;;;;;;;22.89;26.29;94677.69;4907358;28;103998;-72
2021/12/01 05:48:05;;;;;;;5.37;4.87;;;;;;;22.92;26.33;94677.06;4921225;28;104900;-72
2021/12/01 05:50:31;;;;;;;5.60;5.10;;;;;;;22.92;25.96;94669.06;4902966;28;103043;-72
2021/12/01 05:52:57;;;;;;;6.00;5.50;;;;;;;22.93;26.17;94663.41;4903181;28;103309;-71
2021/12/01 05:55:23;;;;;;;5.40;5.00;;;;;;;22.94;25.88;94661.53;4899117;28;103188;-71
2021/12/01 05:57:48;;;;;;;5.10;4.60;;;;;;;22.96;25.81;94662.78;4902878;28;102693;-71
2021/12/01 06:00:14;;;;;;;5.53;5.03;;;;;;;22.94;25.96;94662.31;4916862;28;103042;-72
2021/12/01 06:02:42;;;;;;;5.23;4.80;;;;;;;22.93;26.01;94663.41;4903617;28;102787;-72
2021/12/01 06:05:08;;;;;;;5.30;4.80;;;;;;;22.92;25.88;94669.06;4902925;28;103074;-71
2021/12/01 06:07:34;;;;;;;5.37;4.60;;;;;;;22.89;25.80;94659.81;4900392;28;102792;-71
2021/12/01 06:10:02;;;;;;;4.73;4.33;;;;;;;22.99;25.69;94678.13;4917908;28;103558;-71
2021/12/01 06:12:29;;;;;;;4.40;4.00;;;;;;;22.92;25.49;94672.50;4904138;28;103498;-70
2021/12/01 06:14:55;;;;;;;4.10;3.80;;;;;;;23.01;25.70;94693.81;4905217;28;102677;-71
2021/12/01 06:17:22;;;;;;;4.87;4.47;;;;;;;23.00;25.87;94700.22;4901450;28;103628;-71
2021/12/01 06:19:47;;;;;;;5.00;4.50;;;;;;;23.03;25.81;94697.75;4906623;28;102774;-71
2021/12/01 06:22:13;;;;;;;4.57;4.17;;;;;;;23.00;25.70;94693.03;4908195;28;102851;-71
2021/12/01 06:24:39;;;;;;;8.97;8.07;;;;;;;23.01;26.44;94696.47;4902881;28;104233;-69
2021/12/01 06:27:05;;;;;;;4.60;4.20;;;;;;;22.86;25.50;94668.44;4909138;28;103532;-72
2021/12/01 06:29:31;;;;;;;5.13;4.63;;;;;;;22.99;25.53;94702.13;4901412;28;102797;-72
2021/12/01 06:31:56;;;;;;;6.17;5.63;;;;;;;23.02;25.85;94735.38;4902464;28;102810;-69
2021/12/01 06:34:22;;;;;;;5.90;5.37;;;;;;;23.03;25.78;94726.28;4916013;28;103659;-69
2021/12/01 06:36:48;;;;;;;6.10;5.50;;;;;;;23.02;25.98;94720.16;4902505;28;102808;-68
2021/12/01 06:39:14;;;;;;;5.47;5.07;;;;;;;23.09;25.21;94731.13;4898160;28;103429;-69
2021/12/01 06:41:39;;;;;;;5.50;5.00;;;;;;;23.02;25.77;94717.50;4900720;28;103572;-69
2021/12/01 06:44:05;;;;;;;5.30;4.90;;;;;;;23.05;25.40;94734.75;4903271;28;103082;-70
2021/12/01 06:46:31;;;;;;;5.33;4.43;;;;;;;23.16;25.27;94740.53;4902767;28;103996;-69
2021/12/01 06:48:57;;;;;;;4.90;4.43;;;;;;;23.11;25.40;94747.59;4902037;28;102836;-69
2021/12/01 06:51:23;;;;;;;4.57;4.27;;;;;;;23.34;25.26;94753.53;4897605;28;102857;-69
2021/12/01 06:53:49;;;;;;;4.43;4.03;;;;;;;23.72;24.89;94744.16;4915647;28;104321;-69
2021/12/01 06:56:16;;;;;;;4.30;4.00;;;;;;;23.81;24.56;94752.91;4902184;28;102753;-68
2021/12/01 06:58:42;;;;;;;4.53;4.13;;;;;;;24.03;24.29;94752.72;4902903;28;102175;-69
2021/12/01 07:01:08;;;;;;;4.70;4.30;;;;;;;24.24;24.07;94761.59;4897312;28;102834;-69
2021/12/01 07:03:35;;;;;;;4.90;3.97;;;;;;;24.27;24.46;94742.25;4902253;28;102910;-69
2021/12/01 07:06:01;;;;;;;4.93;4.43;;;;;;;24.41;24.26;94730.63;4903180;28;103173;-69
2021/12/01 07:08:27;;;;;;;4.10;3.70;;;;;;;24.43;24.29;94749.75;4903246;28;103248;-69
2021/12/01 07:10:52;;;;;;;4.57;4.17;;;;;;;24.35;24.20;94755.91;4906147;28;102695;-69
2021/12/01 07:13:18;;;;;;;4.00;3.67;;;;;;;24.22;24.29;94750.44;4908373;28;102778;-69
2021/12/01 07:15:44;;;;;;;4.40;4.03;;;;;;;24.24;24.50;94750.91;4910592;28;103679;-69
2021/12/01 07:18:10;;;;;;;4.60;4.17;;;;;;;24.25;24.68;94749.03;4906865;28;104601;-69
2021/12/01 07:20:51;;;;;;;4.70;3.70;;;;;;;24.29;24.71;94750.75;4911752;28;102801;-69
2021/12/01 07:23:17;;;;;;;3.97;3.67;;;;;;;24.15;24.51;94741.34;4912457;28;102694;-69
2021/12/01 07:25:53;;;;;;;3.90;3.60;;;;;;;24.10;25.00;94728.19;4916087;28;102906;-70
2021/12/01 07:28:18;;;;;;;4.07;3.77;;;;;;;23.93;25.06;94726.34;4910604;28;103448;-69
2021/12/01 07:30:50;;;;;;;3.50;3.30;;;;;;;23.97;25.13;94748.63;4925509;28;102910;-70
2021/12/01 07:33:18;;;;;;;4.00;3.70;;;;;;;23.94;24.93;94709.25;4912605;28;103524;-70
2021/12/01 07:35:46;;;;;;;4.27;3.90;;;;;;;23.93;24.76;94732.47;4911959;28;103406;-70
2021/12/01 07:38:49;;;;;;;3.70;3.40;;;;;;;23.98;24.70;94745.63;4916775;28;103829;-71
2021/12/01 07:41:18;;;;;;;3.90;3.60;;;;;;;23.91;24.86;94721.34;4897666;28;103458;-69
2021/12/01 07:44:06;;;;;;;4.00;3.60;;;;;;;24.10;24.70;94736.19;4914152;28;102975;-70
2021/12/01 07:46:38;;;;;;;4.90;3.70;;;;;;;24.15;25.02;94744.81;4909705;28;102871;-71
2021/12/01 07:49:07;;;;;;;4.50;4.20;;;;;;;24.11;24.89;94743.09;4915001;28;102760;-69
2021/12/01 07:51:32;;;;;;;3.60;3.30;;;;;;;24.12;24.84;94744.66;4915800;28;102681;-69
2021/12/01 07:54:01;;;;;;;3.90;3.60;;;;;;;24.14;25.21;94750.47;4929321;28;105416;-70
2021/12/01 07:56:29;;;;;;;4.00;3.70;;;;;;;24.01;25.50;94758.34;4924788;28;104934;-70
2021/12/01 07:58:55;;;;;;;3.90;3.60;;;;;;;23.96;25.13;94769.19;4914848;28;102943;-69
2021/12/01 08:01:24;;;;;;;5.70;3.93;;;;;;;24.00;24.78;94772.78;4915491;28;102664;-68
2021/12/01 08:03:49;;;;;;;7.80;3.73;;;;;;;24.00;25.22;94764.78;4915129;28;102910;-69
2021/12/01 08:06:18;;;;;;;3.30;3.10;;;;;;;24.06;25.32;94772.63;4928254;28;104961;-72
2021/12/01 08:08:46;;;;;;;3.20;2.97;;;;;;;23.99;24.89;94779.22;4908277;28;103355;-68
2021/12/01 08:11:11;;;;;;;3.63;3.33;;;;;;;24.02;25.08;94777.84;4896986;28;102845;-68
2021/12/01 08:13:38;;;;;;;3.70;3.40;;;;;;;24.05;25.30;94777.19;4887758;28;102685;-68
2021/12/01 08:16:03;;;;;;;3.70;3.40;;;;;;;24.00;25.10;94788.00;4890596;28;103755;-68
2021/12/01 08:18:29;;;;;;;3.50;3.20;;;;;;;24.06;25.28;94799.31;4885818;28;102857;-68
2021/12/01 08:20:54;;;;;;;3.80;3.50;;;;;;;24.01;25.40;94790.38;4889900;28;102834;-68
2021/12/01 08:23:20;;;;;;;3.93;3.63;;;;;;;23.99;25.07;94783.78;4884495;28;102782;-67
2021/12/01 08:25:45;;;;;;;4.10;3.70;;;;;;;23.96;24.90;94795.09;4884472;28;102809;-67
2021/12/01 08:28:11;;;;;;;3.37;3.07;;;;;;;24.00;25.36;94777.34;4885659;28;102773;-67
2021/12/01 08:30:37;;;;;;;3.40;3.10;;;;;;;24.00;24.91;94798.69;4894743;28;102976;-68
2021/12/01 08:33:02;;;;;;;3.83;3.53;;;;;;;23.96;25.12;94771.06;4884028;28;103040;-68
2021/12/01 08:35:31;;;;;;;3.20;2.90;;;;;;;23.98;25.27;94783.00;4885898;28;102788;-67
2021/12/01 08:37:57;;;;;;;3.40;3.13;;;;;;;24.00;25.04;94786.13;4885349;28;102812;-67
2021/12/01 08:40:22;;;;;;;3.17;2.93;;;;;;;24.04;25.05;94780.19;4880701;28;103359;-68
2021/12/01 08:42:48;;;;;;;3.67;3.37;;;;;;;23.97;25.32;94772.66;4885180;28;102949;-69
2021/12/01 08:45:14;;;;;;;3.47;3.17;;;;;;;24.03;25.30;94778.63;4884019;28;102706;-67
2021/12/01 08:47:40;;;;;;;3.37;3.17;;;;;;;24.04;25.13;94778.31;4899081;28;103423;-68
2021/12/01 08:50:08;;;;;;;3.43;3.13;;;;;;;24.03;25.10;94773.28;4885719;28;102544;-68
2021/12/01 08:52:35;;;;;;;3.77;3.47;;;;;;;23.97;25.55;94775.31;4880378;28;103351;-67
2021/12/01 08:55:00;;;;;;;3.67;3.37;;;;;;;24.03;25.10;94779.41;4884762;28;102794;-67
2021/12/01 08:57:26;;;;;;;3.83;3.53;;;;;;;23.97;25.28;94770.75;4884438;28;102800;-67
2021/12/01 08:59:51;;;;;;;3.30;3.10;;;;;;;24.00;25.32;94777.34;4883048;28;102918;-68
2021/12/01 09:02:18;;;;;;;3.43;3.13;;;;;;;24.02;25.25;94775.16;4879760;28;103263;-68
2021/12/01 09:04:44;;;;;;;3.07;2.83;;;;;;;24.03;25.15;94775.94;4882702;28;104415;-69
2021/12/01 09:07:10;;;;;;;3.30;3.00;;;;;;;24.00;25.49;94780.00;4884619;28;102825;-68
2021/12/01 09:09:36;;;;;;;3.40;3.10;;;;;;;24.08;25.36;94791.78;4887280;28;102872;-69
2021/12/01 09:12:02;;;;;;;3.60;3.30;;;;;;;24.03;25.78;94779.41;4905091;28;103340;-69
2021/12/01 09:14:28;;;;;;;3.10;2.90;;;;;;;24.11;25.30;94786.59;4899052;28;102759;-68
2021/12/01 09:16:55;;;;;;;3.60;3.30;;;;;;;24.04;25.23;94786.31;4903048;28;102678;-68
2021/12/01 09:19:22;;;;;;;3.10;2.90;;;;;;;24.01;25.84;94789.59;4918482;28;103400;-69
2021/12/01 09:21:47;;;;;;;3.30;3.10;;;;;;;23.98;25.89;94790.22;4903527;28;103289;-69
2021/12/01 09:24:14;;;;;;;2.93;2.73;;;;;;;24.05;25.94;94787.88;4898400;28;103571;-69
2021/12/01 09:26:41;;;;;;;3.50;3.20;;;;;;;24.02;25.88;94769.81;4903863;28;102937;-68
2021/12/01 09:29:07;;;;;;;3.20;2.90;;;;;;;24.11;25.29;94791.16;4903955;28;103206;-70
2021/12/01 09:31:32;;;;;;;3.43;3.13;;;;;;;24.10;25.82;94778.91;4903311;28;102757;-68
2021/12/01 09:33:58;;;;;;;5.23;3.37;;;;;;;24.11;25.31;94775.91;4902162;28;105415;-70
2021/12/01 09:36:40;;;;;;;3.03;2.60;;;;;;;24.09;25.53;94778.13;4912905;28;103801;-68
2021/12/01 09:39:05;;;;;;;2.87;2.60;;;;;;;24.17;25.74;94774.63;4900687;28;102874;-68
2021/12/01 09:41:31;;;;;;;3.60;3.30;;;;;;;24.13;25.96;94775.59;4903583;28;103656;-68
2021/12/01 09:43:57;;;;;;;3.10;2.90;;;;;;;24.22;25.50;94792.38;4903838;28;102771;-67
2021/12/01 09:46:24;;;;;;;3.10;2.80;;;;;;;24.15;25.96;94778.72;4897350;28;102669;-67
2021/12/01 09:48:50;;;;;;;3.33;3.03;;;;;;;24.24;25.76;94785.63;4903445;28;102694;-67
2021/12/01 09:51:17;;;;;;;3.70;3.40;;;;;;;24.19;26.07;94783.13;4904061;28;103332;-68
2021/12/01 09:53:44;;;;;;;3.00;2.77;;;;;;;24.21;25.77;94783.59;4901437;28;104424;-68
2021/12/01 09:56:10;;;;;;;3.40;3.10;;;;;;;24.24;26.04;94779.50;4903187;28;102745;-68
2021/12/01 09:58:37;;;;;;;4.30;3.10;;;;;;;24.19;26.19;94758.31;4898871;28;102832;-68
2021/12/01 10:01:15;;;;;;;3.03;2.83;;;;;;;24.23;26.25;94765.38;4903206;28;103551;-68
2021/12/01 10:03:41;;;;;;;3.10;2.80;;;;;;;24.24;26.09;94764.25;4908804;28;104326;-69
2021/12/01 10:06:13;;;;;;;3.33;3.03;;;;;;;24.20;26.12;94747.31;4906099;28;102905;-69
2021/12/01 10:08:55;;;;;;;;;;;;;;;;;;;;;
2021/12/01 10:11:27;;;;;;;3.10;2.90;;;;;;;24.23;26.08;94751.22;4916588;28;131671;-69
2021/12/01 10:14:18;;;;;;;3.30;3.00;;;;;;;24.31;25.77;94753.09;4904956;28;104976;-69
2021/12/01 10:16:46;;;;;;;2.70;2.50;;;;;;;24.25;25.73;94741.78;4908061;28;102733;-69
2021/12/01 10:19:16;;;;;;;3.20;3.00;;;;;;;24.33;25.73;94763.47;4905640;28;102773;-68
2021/12/01 10:22:34;;;;;;;3.03;2.83;;;;;;;24.36;26.08;94768.19;4906972;28;102868;-70
2021/12/01 10:25:02;;;;;;;3.10;2.90;;;;;;;24.28;26.03;94748.38;4912394;28;102886;-69
2021/12/01 10:27:39;;;;;;;2.87;2.67;;;;;;;24.31;26.19;94747.75;4906593;28;102685;-69
2021/12/01 10:33:32;;;;;;;3.33;3.03;;;;;;;24.39;25.83;94770.22;4913223;28;102996;-68
2021/12/01 10:36:16;;;;;;;3.37;3.07;;;;;;;24.11;26.21;94732.41;4908484;28;103019;-69
2021/12/01 10:38:45;;;;;;;3.40;3.10;;;;;;;24.21;26.35;94742.75;4910735;28;103480;-70
2021/12/01 10:41:13;;;;;;;3.13;2.83;;;;;;;24.37;26.21;94764.41;4899465;28;103010;-69
2021/12/01 10:43:48;;;;;;;2.97;2.70;;;;;;;24.29;26.13;94745.41;4911758;28;103536;-71
2021/12/01 10:46:25;;;;;;;3.43;3.13;;;;;;;24.17;26.25;94723.91;4909595;28;102860;-69
2021/12/01 10:49:02;;;;;;;3.07;2.77;;;;;;;24.32;26.07;94761.91;4902573;28;102785;-68
2021/12/01 10:51:37;;;;;;;3.83;3.37;;;;;;;24.20;26.36;94736.63;4905469;28;102805;-68
2021/12/01 10:54:03;;;;;;;3.23;2.93;;;;;;;24.26;26.01;94742.56;4904432;28;103213;-69
2021/12/01 10:56:29;;;;;;;3.00;2.80;;;;;;;24.20;26.61;94736.63;4906031;28;103206;-68
2021/12/01 10:58:55;;;;;;;3.80;3.50;;;;;;;24.18;26.64;94730.81;4905562;28;102821;-68
2021/12/01 11:01:24;;;;;;;3.30;2.97;;;;;;;24.15;26.03;94734.13;4905986;28;102687;-68
2021/12/01 11:03:51;;;;;;;3.03;2.83;;;;;;;24.09;26.14;94722.06;4897859;28;105901;-68
2021/12/01 11:06:20;;;;;;;3.67;3.20;;;;;;;24.15;26.45;94736.00;4903765;28;105891;-68
2021/12/01 11:08:51;;;;;;;2.93;2.73;;;;;;;24.11;26.38;94730.53;4905206;28;102682;-68
2021/12/01 11:11:18;;;;;;;2.70;2.50;;;;;;;24.10;26.47;94720.19;4888487;28;102879;-68
2021/12/01 11:13:46;;;;;;;3.40;3.10;;;;;;;24.10;26.39;94715.63;4883272;28;103574;-68
2021/12/01 11:16:14;;;;;;;3.30;3.00;;;;;;;24.04;26.59;94710.78;4899469;28;105515;-68
2021/12/01 11:18:43;;;;;;;2.90;2.70;;;;;;;24.11;26.50;94722.53;4887112;28;102750;-68
2021/12/01 11:21:15;;;;;;;3.87;3.23;;;;;;;24.11;26.78;94719.06;4886611;28;102837;-68
2021/12/01 11:23:43;;;;;;;3.80;3.30;;;;;;;24.13;26.48;94709.66;4883751;28;104452;-68
2021/12/01 11:26:20;;;;;;;3.47;3.17;;;;;;;24.14;26.28;94703.19;4880940;28;103354;-68
2021/12/01 11:28:56;;;;;;;3.20;2.93;;;;;;;24.25;26.63;94707.09;4885472;28;103111;-68
2021/12/01 11:31:27;;;;;;;3.60;3.30;;;;;;;24.25;26.54;94696.41;4885763;28;102869;-68
2021/12/01 11:33:56;;;;;;;3.60;3.30;;;;;;;24.30;26.63;94704.25;4885272;28;102764;-69
2021/12/01 11:36:28;;;;;;;3.20;2.97;;;;;;;24.29;27.22;94697.34;4880582;28;102888;-69
2021/12/01 11:38:56;;;;;;;3.80;3.50;;;;;;;24.29;27.13;94694.69;4885581;28;102698;-68
2021/12/01 11:41:23;;;;;;;3.30;3.00;;;;;;;24.26;27.16;94684.63;4900497;28;103269;-68